sensor_id;sensor_type;location;lat;lon;timestamp;pressure;altitude;pressure_sealevel;temperature;humidity
84835;BME280;75078;42.636;23.198;2024-01-30T00:02:12;93861.09;;;-2.74;68.11
84835;BME280;75078;42.636;23.198;2024-01-30T00:04:38;93857.50;;;-2.78;67.54
84835;BME280;75078;42.636;23.198;2024-01-30T00:07:03;93866.69;;;-2.84;67.56
84835;BME280;75078;42.636;23.198;2024-01-30T00:09:29;93863.50;;;-2.91;68.08
84835;BME280;75078;42.636;23.198;2024-01-30T00:11:54;93863.94;;;-2.82;67.75
84835;BME280;75078;42.636;23.198;2024-01-30T00:14:20;93861.66;;;-2.84;67.69
84835;BME280;75078;42.636;23.198;2024-01-30T00:16:45;93866.91;;;-2.97;68.05
84835;BME280;75078;42.636;23.198;2024-01-30T00:19:10;93866.69;;;-2.96;68.50
84835;BME280;75078;42.636;23.198;2024-01-30T00:21:36;93865.59;;;-3.00;67.95
84835;BME280;75078;42.636;23.198;2024-01-30T00:24:01;93868.09;;;-3.00;68.40
84835;BME280;75078;42.636;23.198;2024-01-30T00:26:27;93865.34;;;-3.10;68.22
84835;BME280;75078;42.636;23.198;2024-01-30T00:28:52;93869.06;;;-3.01;68.29
84835;BME280;75078;42.636;23.198;2024-01-30T00:31:17;93866.47;;;-3.06;68.33
84835;BME280;75078;42.636;23.198;2024-01-30T00:33:43;93867.22;;;-2.94;68.14
84835;BME280;75078;42.636;23.198;2024-01-30T00:36:09;93864.50;;;-3.04;67.93
84835;BME280;75078;42.636;23.198;2024-01-30T00:38:35;93855.50;;;-3.00;67.67
84835;BME280;75078;42.636;23.198;2024-01-30T00:41:01;93859.88;;;-3.07;67.94
84835;BME280;75078;42.636;23.198;2024-01-30T00:43:27;93866.91;;;-3.09;67.91
84835;BME280;75078;42.636;23.198;2024-01-30T00:45:53;93860.75;;;-3.13;68.72
84835;BME280;75078;42.636;23.198;2024-01-30T00:48:19;93853.75;;;-3.11;68.92
84835;BME280;75078;42.636;23.198;2024-01-30T00:50:45;93850.03;;;-3.20;69.55
84835;BME280;75078;42.636;23.198;2024-01-30T00:53:10;93854.19;;;-3.14;69.47
84835;BME280;75078;42.636;23.198;2024-01-30T00:55:36;93848.38;;;-3.03;69.29
84835;BME280;75078;42.636;23.198;2024-01-30T00:58:01;93854.06;;;-3.19;69.10
84835;BME280;75078;42.636;23.198;2024-01-30T01:00:28;93854.63;;;-3.17;69.16
84835;BME280;75078;42.636;23.198;2024-01-30T01:03:00;93854.63;;;-3.17;69.40
84835;BME280;75078;42.636;23.198;2024-01-30T01:05:25;93853.75;;;-3.11;69.54
84835;BME280;75078;42.636;23.198;2024-01-30T01:07:50;93848.69;;;-3.34;69.29
84835;BME280;75078;42.636;23.198;2024-01-30T01:10:16;93847.03;;;-3.40;69.82
84835;BME280;75078;42.636;23.198;2024-01-30T01:12:42;93852.81;;;-3.51;70.27
84835;BME280;75078;42.636;23.198;2024-01-30T01:15:08;93856.31;;;-3.52;70.54
84835;BME280;75078;42.636;23.198;2024-01-30T01:17:37;93849.22;;;-3.43;70.39
84835;BME280;75078;42.636;23.198;2024-01-30T01:20:04;93841.47;;;-3.42;70.19
84835;BME280;75078;42.636;23.198;2024-01-30T01:22:30;93832.69;;;-3.51;70.06
84835;BME280;75078;42.636;23.198;2024-01-30T01:24:56;93840.91;;;-3.44;70.07
84835;BME280;75078;42.636;23.198;2024-01-30T01:27:21;93838.28;;;-3.49;70.42
84835;BME280;75078;42.636;23.198;2024-01-30T01:29:47;93843.50;;;-3.50;70.10
84835;BME280;75078;42.636;23.198;2024-01-30T01:32:12;93843.81;;;-3.58;70.14
84835;BME280;75078;42.636;23.198;2024-01-30T01:34:37;93835.50;;;-3.59;69.81
84835;BME280;75078;42.636;23.198;2024-01-30T01:37:03;93838.56;;;-3.57;69.93
84835;BME280;75078;42.636;23.198;2024-01-30T01:39:29;93835.28;;;-3.46;70.29
84835;BME280;75078;42.636;23.198;2024-01-30T01:41:54;93832.91;;;-3.41;70.49
84835;BME280;75078;42.636;23.198;2024-01-30T01:44:19;93835.75;;;-3.49;70.30
84835;BME280;75078;42.636;23.198;2024-01-30T01:46:45;93838.56;;;-3.57;70.22
84835;BME280;75078;42.636;23.198;2024-01-30T01:49:11;93835.84;;;-3.55;70.68
84835;BME280;75078;42.636;23.198;2024-01-30T01:51:37;93832.78;;;-3.57;70.63
84835;BME280;75078;42.636;23.198;2024-01-30T01:54:06;93834.53;;;-3.58;71.01
84835;BME280;75078;42.636;23.198;2024-01-30T01:56:33;93836.72;;;-3.50;71.49
84835;BME280;75078;42.636;23.198;2024-01-30T01:59:00;93838.41;;;-3.44;70.68
84835;BME280;75078;42.636;23.198;2024-01-30T02:01:31;93833.78;;;-3.47;70.59
84835;BME280;75078;42.636;23.198;2024-01-30T02:03:58;93837.28;;;-3.48;70.67
84835;BME280;75078;42.636;23.198;2024-01-30T02:06:24;93838.41;;;-3.44;70.03
84835;BME280;75078;42.636;23.198;2024-01-30T02:08:49;93840.69;;;-3.42;69.98
84835;BME280;75078;42.636;23.198;2024-01-30T02:11:15;93841.19;;;-3.52;70.37
84835;BME280;75078;42.636;23.198;2024-01-30T02:13:42;93846.66;;;-3.55;70.48
84835;BME280;75078;42.636;23.198;2024-01-30T02:16:07;93844.72;;;-3.53;70.06
84835;BME280;75078;42.636;23.198;2024-01-30T02:18:33;93836.59;;;-3.55;70.94
84835;BME280;75078;42.636;23.198;2024-01-30T02:20:59;93837.47;;;-3.61;70.95
84835;BME280;75078;42.636;23.198;2024-01-30T02:23:30;93841.94;;;-3.63;71.31
84835;BME280;75078;42.636;23.198;2024-01-30T02:25:56;93833.75;;;-3.58;71.18
84835;BME280;75078;42.636;23.198;2024-01-30T02:28:21;93839.00;;;-3.60;70.51
84835;BME280;75078;42.636;23.198;2024-01-30T02:30:46;93832.63;;;-3.74;71.12
84835;BME280;75078;42.636;23.198;2024-01-30T02:33:12;93829.09;;;-3.73;71.14
84835;BME280;75078;42.636;23.198;2024-01-30T02:35:38;93826.59;;;-3.73;70.79
84835;BME280;75078;42.636;23.198;2024-01-30T02:38:04;93829.56;;;-3.76;70.65
84835;BME280;75078;42.636;23.198;2024-01-30T02:40:29;93833.31;;;-3.67;70.57
84835;BME280;75078;42.636;23.198;2024-01-30T02:42:55;93838.66;;;-3.64;70.57
84835;BME280;75078;42.636;23.198;2024-01-30T02:45:20;93845.56;;;-3.59;70.27
84835;BME280;75078;42.636;23.198;2024-01-30T02:47:46;93836.25;;;-3.70;70.31
84835;BME280;75078;42.636;23.198;2024-01-30T02:50:11;93837.03;;;-3.58;70.40
84835;BME280;75078;42.636;23.198;2024-01-30T02:52:36;93840.66;;;-3.54;69.77
84835;BME280;75078;42.636;23.198;2024-01-30T02:55:02;93830.16;;;-3.51;70.20
84835;BME280;75078;42.636;23.198;2024-01-30T02:57:28;93840.53;;;-3.59;70.02
84835;BME280;75078;42.636;23.198;2024-01-30T02:59:54;93839.09;;;-3.55;69.53
84835;BME280;75078;42.636;23.198;2024-01-30T03:02:19;93834.53;;;-3.58;70.27
84835;BME280;75078;42.636;23.198;2024-01-30T03:04:45;93840.78;;;-3.49;69.91
84835;BME280;75078;42.636;23.198;2024-01-30T03:07:10;93829.16;;;-3.50;69.97
84835;BME280;75078;42.636;23.198;2024-01-30T03:09:37;93835.00;;;-3.38;69.67
84835;BME280;75078;42.636;23.198;2024-01-30T03:12:03;93823.75;;;-3.24;69.29
84835;BME280;75078;42.636;23.198;2024-01-30T03:14:30;93821.78;;;-3.22;68.71
84835;BME280;75078;42.636;23.198;2024-01-30T03:16:56;93821.88;;;-3.28;69.40
84835;BME280;75078;42.636;23.198;2024-01-30T03:19:21;93825.91;;;-3.27;68.56
84835;BME280;75078;42.636;23.198;2024-01-30T03:21:47;93819.13;;;-3.27;68.77
84835;BME280;75078;42.636;23.198;2024-01-30T03:24:12;93826.34;;;-3.42;69.72
84835;BME280;75078;42.636;23.198;2024-01-30T03:26:37;93812.00;;;-3.53;69.84
84835;BME280;75078;42.636;23.198;2024-01-30T03:29:03;93813.28;;;-3.50;69.67
84835;BME280;75078;42.636;23.198;2024-01-30T03:31:28;93818.69;;;-3.47;69.46
84835;BME280;75078;42.636;23.198;2024-01-30T03:33:54;93814.97;;;-3.44;68.92
84835;BME280;75078;42.636;23.198;2024-01-30T03:36:19;93807.72;;;-3.41;68.81
84835;BME280;75078;42.636;23.198;2024-01-30T03:38:45;93799.88;;;-3.44;68.83
84835;BME280;75078;42.636;23.198;2024-01-30T03:41:10;93802.38;;;-3.44;68.91
84835;BME280;75078;42.636;23.198;2024-01-30T03:43:36;93795.69;;;-3.39;67.98
84835;BME280;75078;42.636;23.198;2024-01-30T03:46:02;93803.16;;;-3.44;69.27
84835;BME280;75078;42.636;23.198;2024-01-30T03:48:28;93791.63;;;-3.63;69.13
84835;BME280;75078;42.636;23.198;2024-01-30T03:50:54;93800.25;;;-3.59;68.63
84835;BME280;75078;42.636;23.198;2024-01-30T03:53:19;93797.19;;;-3.61;68.82
84835;BME280;75078;42.636;23.198;2024-01-30T03:55:44;93802.66;;;-3.64;68.13
84835;BME280;75078;42.636;23.198;2024-01-30T03:58:10;93795.84;;;-3.75;68.39
84835;BME280;75078;42.636;23.198;2024-01-30T04:00:35;93795.53;;;-3.79;68.88
84835;BME280;75078;42.636;23.198;2024-01-30T04:03:01;93782.28;;;-3.86;68.54
84835;BME280;75078;42.636;23.198;2024-01-30T04:05:26;93803.47;;;-3.93;68.97
84835;BME280;75078;42.636;23.198;2024-01-30T04:07:51;93796.34;;;-3.96;68.69
84835;BME280;75078;42.636;23.198;2024-01-30T04:10:17;93784.09;;;-3.93;68.61
84835;BME280;75078;42.636;23.198;2024-01-30T04:12:42;93805.69;;;-3.85;68.39
84835;BME280;75078;42.636;23.198;2024-01-30T04:15:08;93792.97;;;-3.90;68.54
84835;BME280;75078;42.636;23.198;2024-01-30T04:17:33;93797.59;;;-3.87;68.51
84835;BME280;75078;42.636;23.198;2024-01-30T04:19:59;93788.50;;;-3.88;68.25
84835;BME280;75078;42.636;23.198;2024-01-30T04:22:24;93794.94;;;-3.92;68.59
84835;BME280;75078;42.636;23.198;2024-01-30T04:24:50;93796.50;;;-3.91;68.50
84835;BME280;75078;42.636;23.198;2024-01-30T04:27:15;93793.06;;;-3.97;68.83
84835;BME280;75078;42.636;23.198;2024-01-30T04:29:40;93795.38;;;-3.95;68.26
84835;BME280;75078;42.636;23.198;2024-01-30T04:32:06;93795.38;;;-3.95;68.46
84835;BME280;75078;42.636;23.198;2024-01-30T04:34:31;93813.78;;;-3.83;68.41
84835;BME280;75078;42.636;23.198;2024-01-30T04:36:57;93811.41;;;-3.78;67.80
84835;BME280;75078;42.636;23.198;2024-01-30T04:39:22;93806.22;;;-3.83;67.96
84835;BME280;75078;42.636;23.198;2024-01-30T04:41:48;93812.38;;;-3.79;67.91
84835;BME280;75078;42.636;23.198;2024-01-30T04:44:14;93817.91;;;-3.89;68.15
84835;BME280;75078;42.636;23.198;2024-01-30T04:46:39;93812.69;;;-3.87;68.03
84835;BME280;75078;42.636;23.198;2024-01-30T04:49:05;93818.22;;;-3.97;68.55
84835;BME280;75078;42.636;23.198;2024-01-30T04:51:33;93819.44;;;-3.88;68.63
84835;BME280;75078;42.636;23.198;2024-01-30T04:53:58;93821.19;;;-3.88;67.77
84835;BME280;75078;42.636;23.198;2024-01-30T04:56:24;93825.44;;;-3.89;67.81
84835;BME280;75078;42.636;23.198;2024-01-30T04:58:49;93828.66;;;-3.82;67.56
84835;BME280;75078;42.636;23.198;2024-01-30T05:01:18;93841.59;;;-3.78;67.94
84835;BME280;75078;42.636;23.198;2024-01-30T05:03:43;93828.97;;;-3.90;68.31
84835;BME280;75078;42.636;23.198;2024-01-30T05:06:08;93826.13;;;-3.82;67.77
84835;BME280;75078;42.636;23.198;2024-01-30T05:08:34;93829.19;;;-3.80;67.98
84835;BME280;75078;42.636;23.198;2024-01-30T05:11:02;93827.78;;;-3.87;67.53
84835;BME280;75078;42.636;23.198;2024-01-30T05:13:30;93828.59;;;-3.93;68.28
84835;BME280;75078;42.636;23.198;2024-01-30T05:15:55;93835.50;;;-4.00;68.13
84835;BME280;75078;42.636;23.198;2024-01-30T05:18:21;93831.84;;;-4.04;68.47
84835;BME280;75078;42.636;23.198;2024-01-30T05:20:46;93838.75;;;-4.00;68.98
84835;BME280;75078;42.636;23.198;2024-01-30T05:23:11;93831.44;;;-4.01;68.57
84835;BME280;75078;42.636;23.198;2024-01-30T05:25:37;93832.22;;;-4.01;69.01
84835;BME280;75078;42.636;23.198;2024-01-30T05:28:02;93839.94;;;-4.02;69.54
84835;BME280;75078;42.636;23.198;2024-01-30T05:30:28;93841.28;;;-4.00;69.17
84835;BME280;75078;42.636;23.198;2024-01-30T05:32:53;93838.84;;;-4.06;68.92
84835;BME280;75078;42.636;23.198;2024-01-30T05:35:19;93845.56;;;-4.00;68.79
84835;BME280;75078;42.636;23.198;2024-01-30T05:37:47;93839.19;;;-4.03;70.30
84835;BME280;75078;42.636;23.198;2024-01-30T05:40:13;93840.72;;;-4.02;69.51
84835;BME280;75078;42.636;23.198;2024-01-30T05:42:38;93840.09;;;-3.97;68.81
84835;BME280;75078;42.636;23.198;2024-01-30T05:45:04;93843.59;;;-3.98;69.51
84835;BME280;75078;42.636;23.198;2024-01-30T05:47:30;93837.94;;;-3.94;69.21
84835;BME280;75078;42.636;23.198;2024-01-30T05:49:56;93842.59;;;-3.97;69.14
84835;BME280;75078;42.636;23.198;2024-01-30T05:52:21;93839.19;;;-4.03;69.05
84835;BME280;75078;42.636;23.198;2024-01-30T05:54:46;93842.28;;;-4.01;69.22
84835;BME280;75078;42.636;23.198;2024-01-30T05:57:12;93828.31;;;-4.15;69.57
84835;BME280;75078;42.636;23.198;2024-01-30T05:59:37;93835.44;;;-4.12;69.05
84835;BME280;75078;42.636;23.198;2024-01-30T06:02:03;93841.09;;;-4.16;69.86
84835;BME280;75078;42.636;23.198;2024-01-30T06:04:28;93840.94;;;-4.03;68.98
84835;BME280;75078;42.636;23.198;2024-01-30T06:06:53;93831.28;;;-4.06;69.26
84835;BME280;75078;42.636;23.198;2024-01-30T06:09:19;93830.59;;;-4.13;68.88
84835;BME280;75078;42.636;23.198;2024-01-30T06:11:44;93840.13;;;-4.15;69.14
84835;BME280;75078;42.636;23.198;2024-01-30T06:14:10;93837.28;;;-4.19;69.54
84835;BME280;75078;42.636;23.198;2024-01-30T06:16:35;93831.69;;;-4.21;68.12
84835;BME280;75078;42.636;23.198;2024-01-30T06:19:01;93838.44;;;-4.21;68.84
84835;BME280;75078;42.636;23.198;2024-01-30T06:21:26;93838.53;;;-4.28;69.14
84835;BME280;75078;42.636;23.198;2024-01-30T06:23:52;93847.47;;;-4.14;68.88
84835;BME280;75078;42.636;23.198;2024-01-30T06:26:17;93847.09;;;-4.17;68.75
84835;BME280;75078;42.636;23.198;2024-01-30T06:28:42;93854.94;;;-4.07;69.29
84835;BME280;75078;42.636;23.198;2024-01-30T06:31:08;93848.63;;;-3.98;68.59
84835;BME280;75078;42.636;23.198;2024-01-30T06:33:33;93853.94;;;-4.06;68.31
84835;BME280;75078;42.636;23.198;2024-01-30T06:35:58;93855.72;;;-3.95;67.96
84835;BME280;75078;42.636;23.198;2024-01-30T06:38:24;93858.03;;;-3.94;67.73
84835;BME280;75078;42.636;23.198;2024-01-30T06:40:49;93854.63;;;-3.99;68.20
84835;BME280;75078;42.636;23.198;2024-01-30T06:43:14;93858.31;;;-4.02;67.83
84835;BME280;75078;42.636;23.198;2024-01-30T06:45:40;93851.41;;;-4.06;67.68
84835;BME280;75078;42.636;23.198;2024-01-30T06:48:07;93852.47;;;-3.96;67.74
84835;BME280;75078;42.636;23.198;2024-01-30T06:50:33;93848.47;;;-4.03;67.77
84835;BME280;75078;42.636;23.198;2024-01-30T06:52:58;93849.94;;;-3.96;66.81
84835;BME280;75078;42.636;23.198;2024-01-30T06:55:24;93856.63;;;-3.90;66.69
84835;BME280;75078;42.636;23.198;2024-01-30T06:57:49;93852.94;;;-3.87;66.77
84835;BME280;75078;42.636;23.198;2024-01-30T07:00:15;93850.50;;;-3.94;66.71
84835;BME280;75078;42.636;23.198;2024-01-30T07:02:41;93849.84;;;-3.89;66.50
84835;BME280;75078;42.636;23.198;2024-01-30T07:05:07;93856.28;;;-3.93;66.88
84835;BME280;75078;42.636;23.198;2024-01-30T07:07:32;93845.25;;;-3.92;67.04
84835;BME280;75078;42.636;23.198;2024-01-30T07:09:58;93852.94;;;-3.87;66.23
84835;BME280;75078;42.636;23.198;2024-01-30T07:12:23;93860.25;;;-3.86;66.60
84835;BME280;75078;42.636;23.198;2024-01-30T07:14:50;93851.09;;;-3.69;65.48
84835;BME280;75078;42.636;23.198;2024-01-30T07:17:16;93859.81;;;-3.53;64.25
84835;BME280;75078;42.636;23.198;2024-01-30T07:19:41;93859.38;;;-3.50;64.34
84835;BME280;75078;42.636;23.198;2024-01-30T07:22:07;93854.59;;;-3.40;64.12
84835;BME280;75078;42.636;23.198;2024-01-30T07:24:33;93850.66;;;-3.36;62.90
84835;BME280;75078;42.636;23.198;2024-01-30T07:26:58;93851.06;;;-3.39;63.17
84835;BME280;75078;42.636;23.198;2024-01-30T07:29:24;93841.13;;;-3.34;63.08
84835;BME280;75078;42.636;23.198;2024-01-30T07:31:49;93850.75;;;-3.42;63.43
84835;BME280;75078;42.636;23.198;2024-01-30T07:34:15;93852.50;;;-3.43;62.75
84835;BME280;75078;42.636;23.198;2024-01-30T07:36:40;93852.19;;;-3.35;62.82
84835;BME280;75078;42.636;23.198;2024-01-30T07:39:05;93847.81;;;-3.28;62.33
84835;BME280;75078;42.636;23.198;2024-01-30T07:41:31;93852.00;;;-3.22;62.44
84835;BME280;75078;42.636;23.198;2024-01-30T07:43:56;93837.75;;;-3.28;62.46
84835;BME280;75078;42.636;23.198;2024-01-30T07:46:22;93840.81;;;-3.26;62.08
84835;BME280;75078;42.636;23.198;2024-01-30T07:48:47;93844.63;;;-3.23;62.06
84835;BME280;75078;42.636;23.198;2024-01-30T07:51:13;93839.19;;;-3.20;61.54
84835;BME280;75078;42.636;23.198;2024-01-30T07:53:38;93832.53;;;-3.15;61.04
84835;BME280;75078;42.636;23.198;2024-01-30T07:56:04;93835.91;;;-2.98;61.32
84835;BME280;75078;42.636;23.198;2024-01-30T07:58:29;93830.75;;;-2.91;60.47
84835;BME280;75078;42.636;23.198;2024-01-30T08:00:54;93830.97;;;-2.69;59.39
84835;BME280;75078;42.636;23.198;2024-01-30T08:03:23;93830.09;;;-2.63;59.30
84835;BME280;75078;42.636;23.198;2024-01-30T08:05:48;93815.22;;;-2.37;58.84
84835;BME280;75078;42.636;23.198;2024-01-30T08:08:13;93823.00;;;-2.27;58.15
84835;BME280;75078;42.636;23.198;2024-01-30T08:10:39;93817.94;;;-2.15;58.34
84835;BME280;75078;42.636;23.198;2024-01-30T08:13:04;93820.53;;;-2.10;57.72
84835;BME280;75078;42.636;23.198;2024-01-30T08:15:30;93826.75;;;-2.01;58.25
84835;BME280;75078;42.636;23.198;2024-01-30T08:17:55;93834.19;;;-1.94;57.64
84835;BME280;75078;42.636;23.198;2024-01-30T08:20:24;93820.16;;;-1.74;56.25
84835;BME280;75078;42.636;23.198;2024-01-30T08:22:49;93824.47;;;-1.58;56.04
84835;BME280;75078;42.636;23.198;2024-01-30T08:25:15;93830.84;;;-1.38;55.71
84835;BME280;75078;42.636;23.198;2024-01-30T08:27:40;93825.63;;;-1.15;55.24
84835;BME280;75078;42.636;23.198;2024-01-30T08:30:06;93822.75;;;-1.07;54.09
84835;BME280;75078;42.636;23.198;2024-01-30T08:32:32;93835.31;;;-0.57;54.59
84835;BME280;75078;42.636;23.198;2024-01-30T08:34:58;93826.50;;;-0.33;52.63
84835;BME280;75078;42.636;23.198;2024-01-30T08:37:24;93832.63;;;-0.08;52.46
84835;BME280;75078;42.636;23.198;2024-01-30T08:39:49;93836.22;;;-0.04;50.83
84835;BME280;75078;42.636;23.198;2024-01-30T08:42:15;93844.47;;;0.35;51.38
84835;BME280;75078;42.636;23.198;2024-01-30T08:44:41;93834.59;;;0.34;50.02
84835;BME280;75078;42.636;23.198;2024-01-30T08:47:06;93834.16;;;0.42;50.52
84835;BME280;75078;42.636;23.198;2024-01-30T08:49:31;93838.19;;;0.69;49.55
84835;BME280;75078;42.636;23.198;2024-01-30T08:51:57;93844.47;;;0.62;48.28
84835;BME280;75078;42.636;23.198;2024-01-30T08:54:23;93844.66;;;0.29;50.43
84835;BME280;75078;42.636;23.198;2024-01-30T08:56:49;93839.22;;;0.42;50.25
84835;BME280;75078;42.636;23.198;2024-01-30T08:59:14;93838.03;;;0.49;49.25
84835;BME280;75078;42.636;23.198;2024-01-30T09:01:40;93850.50;;;0.56;49.72
84835;BME280;75078;42.636;23.198;2024-01-30T09:04:05;93849.53;;;0.62;49.27
84835;BME280;75078;42.636;23.198;2024-01-30T09:06:31;93859.38;;;0.58;49.97
84835;BME280;75078;42.636;23.198;2024-01-30T09:08:56;93857.03;;;0.79;48.35
84835;BME280;75078;42.636;23.198;2024-01-30T09:11:23;93850.34;;;0.99;48.21
84835;BME280;75078;42.636;23.198;2024-01-30T09:13:48;93850.00;;;0.86;48.51
84835;BME280;75078;42.636;23.198;2024-01-30T09:16:14;93855.34;;;0.89;49.33
84835;BME280;75078;42.636;23.198;2024-01-30T09:18:41;93853.41;;;1.01;48.63
84835;BME280;75078;42.636;23.198;2024-01-30T09:21:06;93850.41;;;1.09;48.39
84835;BME280;75078;42.636;23.198;2024-01-30T09:23:31;93843.84;;;0.82;49.55
84835;BME280;75078;42.636;23.198;2024-01-30T09:25:57;93847.00;;;0.94;49.00
84835;BME280;75078;42.636;23.198;2024-01-30T09:28:23;93848.75;;;1.25;48.88
84835;BME280;75078;42.636;23.198;2024-01-30T09:30:48;93840.56;;;1.60;47.97
84835;BME280;75078;42.636;23.198;2024-01-30T09:33:13;93841.03;;;1.47;49.51
84835;BME280;75078;42.636;23.198;2024-01-30T09:35:39;93849.28;;;1.32;49.07
84835;BME280;75078;42.636;23.198;2024-01-30T09:38:04;93852.63;;;1.37;51.09
84835;BME280;75078;42.636;23.198;2024-01-30T09:40:29;93831.72;;;1.15;50.48
84835;BME280;75078;42.636;23.198;2024-01-30T09:42:55;93842.63;;;0.84;51.72
84835;BME280;75078;42.636;23.198;2024-01-30T09:45:25;93852.72;;;1.16;50.94
84835;BME280;75078;42.636;23.198;2024-01-30T09:47:51;93843.09;;;1.55;51.40
84835;BME280;75078;42.636;23.198;2024-01-30T09:50:17;93837.31;;;1.64;51.03
84835;BME280;75078;42.636;23.198;2024-01-30T09:52:44;93843.09;;;1.55;50.25
84835;BME280;75078;42.636;23.198;2024-01-30T09:55:09;93846.38;;;1.13;50.78
84835;BME280;75078;42.636;23.198;2024-01-30T09:57:35;93851.31;;;0.93;51.90
84835;BME280;75078;42.636;23.198;2024-01-30T10:00:02;93843.59;;;0.78;52.13
84835;BME280;75078;42.636;23.198;2024-01-30T10:02:27;93853.03;;;1.19;51.41
84835;BME280;75078;42.636;23.198;2024-01-30T10:04:53;93843.84;;;1.55;51.42
84835;BME280;75078;42.636;23.198;2024-01-30T10:07:19;93843.53;;;1.93;49.70
84835;BME280;75078;42.636;23.198;2024-01-30T10:09:45;93836.00;;;2.24;48.90
84835;BME280;75078;42.636;23.198;2024-01-30T10:12:11;93825.81;;;2.13;48.95
84835;BME280;75078;42.636;23.198;2024-01-30T10:14:40;93832.69;;;2.18;48.23
84835;BME280;75078;42.636;23.198;2024-01-30T10:17:08;93814.69;;;2.50;47.32
84835;BME280;75078;42.636;23.198;2024-01-30T10:19:35;93822.56;;;2.38;47.01
84835;BME280;75078;42.636;23.198;2024-01-30T10:22:00;93822.84;;;2.52;47.90
84835;BME280;75078;42.636;23.198;2024-01-30T10:24:26;93821.53;;;2.34;47.71
84835;BME280;75078;42.636;23.198;2024-01-30T10:26:53;93826.56;;;2.14;48.23
84835;BME280;75078;42.636;23.198;2024-01-30T10:29:18;93814.97;;;1.66;49.74
84835;BME280;75078;42.636;23.198;2024-01-30T10:31:44;93825.88;;;1.62;50.58
84835;BME280;75078;42.636;23.198;2024-01-30T10:34:09;93819.59;;;1.79;48.21
84835;BME280;75078;42.636;23.198;2024-01-30T10:36:39;93825.38;;;1.70;49.75
84835;BME280;75078;42.636;23.198;2024-01-30T10:39:06;93826.28;;;2.00;49.03
84835;BME280;75078;42.636;23.198;2024-01-30T10:41:38;93825.03;;;2.13;48.39
84835;BME280;75078;42.636;23.198;2024-01-30T10:44:11;93815.13;;;2.06;48.32
84835;BME280;75078;42.636;23.198;2024-01-30T10:46:42;93812.63;;;2.32;48.06
84835;BME280;75078;42.636;23.198;2024-01-30T10:49:10;93820.47;;;2.20;47.97
84835;BME280;75078;42.636;23.198;2024-01-30T10:51:36;93810.28;;;2.00;48.26
84835;BME280;75078;42.636;23.198;2024-01-30T10:54:05;93814.59;;;2.04;48.29
84835;BME280;75078;42.636;23.198;2024-01-30T10:56:32;93807.19;;;1.93;48.48
84835;BME280;75078;42.636;23.198;2024-01-30T10:58:58;93798.63;;;2.24;46.96
84835;BME280;75078;42.636;23.198;2024-01-30T11:01:25;93795.91;;;2.51;46.58
84835;BME280;75078;42.636;23.198;2024-01-30T11:03:51;93795.16;;;3.01;45.88
84835;BME280;75078;42.636;23.198;2024-01-30T11:06:17;93786.44;;;3.22;45.17
84835;BME280;75078;42.636;23.198;2024-01-30T11:08:46;93784.44;;;3.04;45.58
84835;BME280;75078;42.636;23.198;2024-01-30T11:11:11;93784.66;;;3.32;45.60
84835;BME280;75078;42.636;23.198;2024-01-30T11:13:37;93782.34;;;3.46;44.19
84835;BME280;75078;42.636;23.198;2024-01-30T11:16:04;93775.56;;;3.80;43.75
84835;BME280;75078;42.636;23.198;2024-01-30T11:18:31;93773.84;;;3.71;44.54
84835;BME280;75078;42.636;23.198;2024-01-30T11:20:58;93778.59;;;3.92;44.43
84835;BME280;75078;42.636;23.198;2024-01-30T11:23:23;93768.88;;;3.99;42.54
84835;BME280;75078;42.636;23.198;2024-01-30T11:25:52;93767.13;;;3.90;42.83
84835;BME280;75078;42.636;23.198;2024-01-30T11:28:18;93770.88;;;4.07;41.62
84835;BME280;75078;42.636;23.198;2024-01-30T11:30:44;93769.75;;;4.23;43.15
84835;BME280;75078;42.636;23.198;2024-01-30T11:33:14;93774.50;;;3.91;42.55
84835;BME280;75078;42.636;23.198;2024-01-30T11:35:44;93775.78;;;3.94;42.55
84835;BME280;75078;42.636;23.198;2024-01-30T11:38:11;93783.19;;;3.90;43.02
84835;BME280;75078;42.636;23.198;2024-01-30T11:40:38;93779.00;;;4.14;42.58
84835;BME280;75078;42.636;23.198;2024-01-30T11:43:05;93783.69;;;3.92;43.06
84835;BME280;75078;42.636;23.198;2024-01-30T11:45:32;93783.44;;;4.38;43.14
84835;BME280;75078;42.636;23.198;2024-01-30T11:47:58;93773.47;;;4.41;41.54
84835;BME280;75078;42.636;23.198;2024-01-30T11:50:29;93778.56;;;4.41;42.15
84835;BME280;75078;42.636;23.198;2024-01-30T11:52:55;93769.97;;;3.88;43.64
84835;BME280;75078;42.636;23.198;2024-01-30T11:55:20;93773.03;;;3.80;43.65
84835;BME280;75078;42.636;23.198;2024-01-30T11:57:45;93764.94;;;3.73;44.00
84835;BME280;75078;42.636;23.198;2024-01-30T12:00:18;93766.50;;;3.59;44.29
84835;BME280;75078;42.636;23.198;2024-01-30T12:02:44;93766.03;;;3.42;45.09
84835;BME280;75078;42.636;23.198;2024-01-30T12:05:14;93763.88;;;3.84;44.40
84835;BME280;75078;42.636;23.198;2024-01-30T12:07:39;93752.50;;;4.10;45.01
84835;BME280;75078;42.636;23.198;2024-01-30T12:10:04;93748.53;;;3.89;42.91
84835;BME280;75078;42.636;23.198;2024-01-30T12:12:32;93742.91;;;3.97;44.71
84835;BME280;75078;42.636;23.198;2024-01-30T12:14:57;93753.13;;;3.92;44.51
84835;BME280;75078;42.636;23.198;2024-01-30T12:17:33;93747.31;;;3.87;44.60
84835;BME280;75078;42.636;23.198;2024-01-30T12:20:13;93727.66;;;3.87;43.92
84835;BME280;75078;42.636;23.198;2024-01-30T12:22:44;93731.69;;;3.39;44.77
84835;BME280;75078;42.636;23.198;2024-01-30T12:25:11;93740.31;;;3.48;45.13
84835;BME280;75078;42.636;23.198;2024-01-30T12:27:37;93728.34;;;3.54;44.35
84835;BME280;75078;42.636;23.198;2024-01-30T12:30:07;93728.84;;;3.51;44.67
84835;BME280;75078;42.636;23.198;2024-01-30T12:32:35;93716.97;;;3.26;44.21
84835;BME280;75078;42.636;23.198;2024-01-30T12:35:01;93718.81;;;3.06;45.50
84835;BME280;75078;42.636;23.198;2024-01-30T12:37:26;93717.06;;;2.86;46.63
84835;BME280;75078;42.636;23.198;2024-01-30T12:39:52;93722.16;;;2.81;47.10
84835;BME280;75078;42.636;23.198;2024-01-30T12:42:19;93710.22;;;2.71;47.21
84835;BME280;75078;42.636;23.198;2024-01-30T12:44:46;93719.63;;;2.61;47.48
84835;BME280;75078;42.636;23.198;2024-01-30T12:47:12;93713.78;;;2.75;46.81